Pagrindinis puslapis
METAR-TAF:

METAR-TAF

Oro uostai :

Honiara, Gvadalkanalis, Saliamono Salos

platuma: 09-25S, ilguma: 160-03E, Aukštis: 8 m

Dabartinis oras

Ataskaita buvo paskelbta 5 valandos ir 26 minutes, ne 04:00 UTC
Vėjas 8 kt iš Rytų
Temperatūra 31°C
Drėgmė 71%
Slėgis 1008 hPa
Matomumas 10 km arba daugiau
Mažai debesys ne aukštis 1900 ft
Mažai debesys ne aukštis 2000 ft, Liūtiniai kamuoliniai debesys.

METAR: AGGH 220400Z 09008KT 9999 FEW019 FEW020CB 31/25 Q1008

Laikas: 20:26 (09:26 UTC)

Prognozė

Ataskaita buvo paskelbta 21 valandos ir 1 minutes, ne 12:25 UTC
Prognozė galioja nuo 21 metu 12 UTC su 22 metu 12 UTC
Vėjas 8 kt iš Pietryčių
Matomumas: 1010 m
Mažai debesys ne aukštis 1800 ft

TAF: AGGH 211225Z 2112/2212 14008KT 9999 FEW018 T 26 25 24 23 Q 1011 1009 1008 1010 TAF3

Orai ataskaitas ir orų prognozės (METAR, TAF).

turimą stotys yra geltonos ir raudonos taškus žemėlapyje.

Perkelti pele per norėdami pamatyti stoties vardą.

Tada spustelėkite, norėdami matyti oro stebėjimo ir prognozės.

Norėdami pakeisti žemėlapį: spustelėkite ant žalios mygtukų su juodo kryžiaus žemyn,; žalią mygtuką su brūkšneliu, jei norite nutolinti; arba žalių rodyklių gretimoms žemėlapius.


METAR-TAF: